sensor_id;sensor_type;location;lat;lon;timestamp;P1;durP1;ratioP1;P2;durP2;ratioP2
11655;SDS011;5884;43.618;1.438;2024-02-21T05:46:58;15.10;;;9.23;;
11655;SDS011;5884;43.618;1.438;2024-02-21T05:49:25;13.53;;;9.90;;
11655;SDS011;5884;43.618;1.438;2024-02-21T05:51:52;22.23;;;9.97;;
11655;SDS011;5884;43.618;1.438;2024-02-21T05:54:20;16.10;;;9.27;;
11655;SDS011;5884;43.618;1.438;2024-02-21T05:56:47;15.90;;;8.90;;
11655;SDS011;5884;43.618;1.438;2024-02-21T05:59:14;13.27;;;8.70;;
11655;SDS011;5884;43.618;1.438;2024-02-21T06:01:41;17.90;;;10.17;;
11655;SDS011;5884;43.618;1.438;2024-02-21T06:04:09;14.73;;;9.97;;
11655;SDS011;5884;43.618;1.438;2024-02-21T06:06:37;15.23;;;9.60;;
11655;SDS011;5884;43.618;1.438;2024-02-21T06:09:04;18.03;;;9.77;;
11655;SDS011;5884;43.618;1.438;2024-02-21T06:11:31;13.03;;;9.60;;
11655;SDS011;5884;43.618;1.438;2024-02-21T06:13:58;16.07;;;9.80;;
11655;SDS011;5884;43.618;1.438;2024-02-21T06:16:25;13.97;;;8.90;;
11655;SDS011;5884;43.618;1.438;2024-02-21T06:18:53;15.93;;;9.40;;
11655;SDS011;5884;43.618;1.438;2024-02-21T06:21:21;14.37;;;9.57;;
11655;SDS011;5884;43.618;1.438;2024-02-21T06:23:48;15.00;;;9.80;;
11655;SDS011;5884;43.618;1.438;2024-02-21T06:26:15;15.57;;;10.20;;
11655;SDS011;5884;43.618;1.438;2024-02-21T06:28:42;15.17;;;9.80;;
11655;SDS011;5884;43.618;1.438;2024-02-21T06:31:11;22.23;;;10.43;;
11655;SDS011;5884;43.618;1.438;2024-02-21T06:33:40;16.03;;;10.30;;
11655;SDS011;5884;43.618;1.438;2024-02-21T06:36:07;15.50;;;10.57;;
11655;SDS011;5884;43.618;1.438;2024-02-21T06:38:36;16.80;;;10.03;;
11655;SDS011;5884;43.618;1.438;2024-02-21T06:41:03;17.90;;;10.80;;
11655;SDS011;5884;43.618;1.438;2024-02-21T06:43:30;16.93;;;10.07;;
11655;SDS011;5884;43.618;1.438;2024-02-21T06:45:57;19.23;;;10.40;;
11655;SDS011;5884;43.618;1.438;2024-02-21T06:48:24;21.17;;;10.90;;
11655;SDS011;5884;43.618;1.438;2024-02-21T06:50:52;18.43;;;11.40;;
11655;SDS011;5884;43.618;1.438;2024-02-21T06:53:19;17.17;;;10.60;;
11655;SDS011;5884;43.618;1.438;2024-02-21T06:55:47;20.57;;;11.43;;
11655;SDS011;5884;43.618;1.438;2024-02-21T06:58:14;19.13;;;11.53;;
11655;SDS011;5884;43.618;1.438;2024-02-21T07:00:42;16.37;;;10.90;;
11655;SDS011;5884;43.618;1.438;2024-02-21T07:03:09;19.30;;;11.33;;
11655;SDS011;5884;43.618;1.438;2024-02-21T07:05:36;16.20;;;10.13;;
11655;SDS011;5884;43.618;1.438;2024-02-21T07:08:03;17.77;;;10.23;;
11655;SDS011;5884;43.618;1.438;2024-02-21T07:10:31;17.90;;;10.40;;
11655;SDS011;5884;43.618;1.438;2024-02-21T07:12:59;16.30;;;10.10;;
11655;SDS011;5884;43.618;1.438;2024-02-21T07:15:26;17.60;;;10.57;;
11655;SDS011;5884;43.618;1.438;2024-02-21T07:17:56;18.47;;;10.10;;
11655;SDS011;5884;43.618;1.438;2024-02-21T07:20:23;17.13;;;9.93;;
11655;SDS011;5884;43.618;1.438;2024-02-21T07:22:50;17.97;;;10.30;;
11655;SDS011;5884;43.618;1.438;2024-02-21T07:25:17;22.40;;;9.80;;
11655;SDS011;5884;43.618;1.438;2024-02-21T07:27:44;18.17;;;9.30;;
11655;SDS011;5884;43.618;1.438;2024-02-21T07:30:13;18.07;;;9.57;;
11655;SDS011;5884;43.618;1.438;2024-02-21T07:32:40;20.07;;;9.97;;
11655;SDS011;5884;43.618;1.438;2024-02-21T07:35:08;17.87;;;11.20;;
11655;SDS011;5884;43.618;1.438;2024-02-21T07:37:37;17.53;;;9.40;;
11655;SDS011;5884;43.618;1.438;2024-02-21T07:40:05;17.63;;;9.80;;
11655;SDS011;5884;43.618;1.438;2024-02-21T07:42:38;13.70;;;8.67;;
11655;SDS011;5884;43.618;1.438;2024-02-21T07:45:05;14.43;;;8.60;;
11655;SDS011;5884;43.618;1.438;2024-02-21T07:47:35;12.97;;;7.10;;
11655;SDS011;5884;43.618;1.438;2024-02-21T07:50:02;14.40;;;8.57;;
11655;SDS011;5884;43.618;1.438;2024-02-21T07:52:30;14.00;;;8.27;;
11655;SDS011;5884;43.618;1.438;2024-02-21T07:54:58;14.37;;;8.27;;
11655;SDS011;5884;43.618;1.438;2024-02-21T07:57:25;12.13;;;6.90;;
11655;SDS011;5884;43.618;1.438;2024-02-21T07:59:52;13.97;;;8.40;;
11655;SDS011;5884;43.618;1.438;2024-02-21T08:02:19;13.47;;;7.63;;
11655;SDS011;5884;43.618;1.438;2024-02-21T08:04:47;15.40;;;8.10;;
11655;SDS011;5884;43.618;1.438;2024-02-21T08:07:14;17.47;;;8.13;;
11655;SDS011;5884;43.618;1.438;2024-02-21T08:09:42;14.63;;;7.83;;
11655;SDS011;5884;43.618;1.438;2024-02-21T08:12:09;19.10;;;8.73;;
11655;SDS011;5884;43.618;1.438;2024-02-21T08:14:36;15.63;;;7.97;;
11655;SDS011;5884;43.618;1.438;2024-02-21T08:17:03;14.90;;;7.30;;
11655;SDS011;5884;43.618;1.438;2024-02-21T08:19:30;13.57;;;7.67;;
11655;SDS011;5884;43.618;1.438;2024-02-21T08:21:59;16.27;;;7.40;;
11655;SDS011;5884;43.618;1.438;2024-02-21T08:24:26;12.30;;;6.70;;
11655;SDS011;5884;43.618;1.438;2024-02-21T08:26:53;13.30;;;6.67;;
11655;SDS011;5884;43.618;1.438;2024-02-21T08:29:20;16.73;;;7.97;;
11655;SDS011;5884;43.618;1.438;2024-02-21T08:31:48;12.27;;;6.63;;
11655;SDS011;5884;43.618;1.438;2024-02-21T08:34:15;18.20;;;9.10;;
11655;SDS011;5884;43.618;1.438;2024-02-21T08:36:43;17.57;;;8.10;;
11655;SDS011;5884;43.618;1.438;2024-02-21T08:39:11;21.17;;;8.30;;
11655;SDS011;5884;43.618;1.438;2024-02-21T08:41:41;16.17;;;8.27;;
11655;SDS011;5884;43.618;1.438;2024-02-21T08:44:08;14.17;;;7.23;;
11655;SDS011;5884;43.618;1.438;2024-02-21T08:46:36;14.73;;;8.13;;
11655;SDS011;5884;43.618;1.438;2024-02-21T08:49:05;19.97;;;8.53;;
11655;SDS011;5884;43.618;1.438;2024-02-21T08:51:32;13.73;;;6.80;;
11655;SDS011;5884;43.618;1.438;2024-02-21T08:54:00;10.97;;;5.87;;
11655;SDS011;5884;43.618;1.438;2024-02-21T08:56:31;11.27;;;6.50;;
11655;SDS011;5884;43.618;1.438;2024-02-21T08:58:58;14.93;;;6.93;;
11655;SDS011;5884;43.618;1.438;2024-02-21T09:01:25;15.47;;;7.33;;
11655;SDS011;5884;43.618;1.438;2024-02-21T09:03:53;12.37;;;7.43;;
11655;SDS011;5884;43.618;1.438;2024-02-21T09:06:21;10.17;;;6.93;;
11655;SDS011;5884;43.618;1.438;2024-02-21T09:08:49;14.33;;;7.37;;
11655;SDS011;5884;43.618;1.438;2024-02-21T09:11:16;13.73;;;7.67;;
11655;SDS011;5884;43.618;1.438;2024-02-21T09:13:44;12.23;;;7.73;;
11655;SDS011;5884;43.618;1.438;2024-02-21T09:16:11;11.33;;;7.67;;
11655;SDS011;5884;43.618;1.438;2024-02-21T09:18:38;16.10;;;7.93;;
11655;SDS011;5884;43.618;1.438;2024-02-21T09:21:06;16.10;;;7.93;;
11655;SDS011;5884;43.618;1.438;2024-02-21T09:23:33;15.10;;;8.90;;
11655;SDS011;5884;43.618;1.438;2024-02-21T09:26:00;15.20;;;8.33;;
11655;SDS011;5884;43.618;1.438;2024-02-21T09:28:29;13.27;;;7.87;;
11655;SDS011;5884;43.618;1.438;2024-02-21T09:30:57;16.43;;;8.30;;
11655;SDS011;5884;43.618;1.438;2024-02-21T09:33:24;21.90;;;8.53;;
11655;SDS011;5884;43.618;1.438;2024-02-21T09:35:52;17.73;;;8.27;;
11655;SDS011;5884;43.618;1.438;2024-02-21T09:38:19;15.33;;;7.93;;
11655;SDS011;5884;43.618;1.438;2024-02-21T09:40:46;15.80;;;8.73;;
11655;SDS011;5884;43.618;1.438;2024-02-21T09:43:13;18.30;;;8.43;;
11655;SDS011;5884;43.618;1.438;2024-02-21T09:45:46;14.47;;;8.27;;
11655;SDS011;5884;43.618;1.438;2024-02-21T09:48:25;15.83;;;7.73;;
11655;SDS011;5884;43.618;1.438;2024-02-21T09:51:04;25.07;;;9.40;;
11655;SDS011;5884;43.618;1.438;2024-02-21T09:53:33;21.67;;;8.53;;
11655;SDS011;5884;43.618;1.438;2024-02-21T09:56:04;16.27;;;7.67;;
11655;SDS011;5884;43.618;1.438;2024-02-21T09:58:34;18.10;;;8.03;;
11655;SDS011;5884;43.618;1.438;2024-02-21T10:01:01;12.80;;;6.77;;
11655;SDS011;5884;43.618;1.438;2024-02-21T10:03:33;13.00;;;7.13;;
11655;SDS011;5884;43.618;1.438;2024-02-21T10:06:00;18.77;;;6.63;;
11655;SDS011;5884;43.618;1.438;2024-02-21T10:08:28;11.27;;;5.97;;
11655;SDS011;5884;43.618;1.438;2024-02-21T10:10:55;11.77;;;5.57;;
11655;SDS011;5884;43.618;1.438;2024-02-21T10:13:25;10.67;;;5.10;;
11655;SDS011;5884;43.618;1.438;2024-02-21T10:16:00;15.47;;;5.00;;
11655;SDS011;5884;43.618;1.438;2024-02-21T10:18:29;10.57;;;4.17;;
11655;SDS011;5884;43.618;1.438;2024-02-21T10:21:01;11.20;;;4.17;;
11655;SDS011;5884;43.618;1.438;2024-02-21T10:23:29;13.43;;;3.40;;
11655;SDS011;5884;43.618;1.438;2024-02-21T10:26:11;6.10;;;3.03;;
11655;SDS011;5884;43.618;1.438;2024-02-21T10:28:38;8.33;;;2.80;;
11655;SDS011;5884;43.618;1.438;2024-02-21T10:31:07;8.10;;;3.03;;
11655;SDS011;5884;43.618;1.438;2024-02-21T10:33:36;6.10;;;2.67;;
11655;SDS011;5884;43.618;1.438;2024-02-21T10:36:09;5.90;;;2.30;;
11655;SDS011;5884;43.618;1.438;2024-02-21T10:38:37;6.53;;;2.83;;
11655;SDS011;5884;43.618;1.438;2024-02-21T10:41:05;6.13;;;2.70;;
11655;SDS011;5884;43.618;1.438;2024-02-21T10:43:37;5.93;;;2.60;;
11655;SDS011;5884;43.618;1.438;2024-02-21T10:46:06;8.40;;;2.70;;
11655;SDS011;5884;43.618;1.438;2024-02-21T10:48:38;5.43;;;2.30;;
11655;SDS011;5884;43.618;1.438;2024-02-21T10:51:15;4.70;;;2.00;;
11655;SDS011;5884;43.618;1.438;2024-02-21T10:53:45;4.70;;;2.00;;
11655;SDS011;5884;43.618;1.438;2024-02-21T10:56:22;6.07;;;2.00;;
11655;SDS011;5884;43.618;1.438;2024-02-21T10:58:55;4.67;;;2.17;;
11655;SDS011;5884;43.618;1.438;2024-02-21T11:01:24;3.57;;;2.00;;
11655;SDS011;5884;43.618;1.438;2024-02-21T11:03:54;6.27;;;2.27;;
11655;SDS011;5884;43.618;1.438;2024-02-21T11:06:25;5.60;;;2.40;;
11655;SDS011;5884;43.618;1.438;2024-02-21T11:09:03;4.47;;;2.50;;
11655;SDS011;5884;43.618;1.438;2024-02-21T11:11:34;8.23;;;3.17;;
11655;SDS011;5884;43.618;1.438;2024-02-21T11:14:09;5.87;;;2.80;;
11655;SDS011;5884;43.618;1.438;2024-02-21T11:16:39;5.07;;;2.30;;
11655;SDS011;5884;43.618;1.438;2024-02-21T11:19:07;4.50;;;2.03;;
11655;SDS011;5884;43.618;1.438;2024-02-21T11:21:37;4.23;;;1.87;;
11655;SDS011;5884;43.618;1.438;2024-02-21T11:24:06;4.90;;;2.13;;
11655;SDS011;5884;43.618;1.438;2024-02-21T11:26:36;3.93;;;1.77;;
11655;SDS011;5884;43.618;1.438;2024-02-21T11:29:04;7.93;;;2.43;;
11655;SDS011;5884;43.618;1.438;2024-02-21T11:31:40;6.37;;;2.00;;
11655;SDS011;5884;43.618;1.438;2024-02-21T11:34:10;3.93;;;1.90;;
11655;SDS011;5884;43.618;1.438;2024-02-21T11:36:47;3.40;;;1.73;;
11655;SDS011;5884;43.618;1.438;2024-02-21T11:39:19;4.90;;;1.80;;
11655;SDS011;5884;43.618;1.438;2024-02-21T11:41:48;2.83;;;1.67;;
11655;SDS011;5884;43.618;1.438;2024-02-21T11:44:29;4.70;;;1.93;;
11655;SDS011;5884;43.618;1.438;2024-02-21T11:46:56;4.07;;;1.87;;
11655;SDS011;5884;43.618;1.438;2024-02-21T11:49:24;4.73;;;1.50;;
11655;SDS011;5884;43.618;1.438;2024-02-21T11:51:58;4.37;;;1.70;;
11655;SDS011;5884;43.618;1.438;2024-02-21T11:54:29;6.60;;;2.03;;
11655;SDS011;5884;43.618;1.438;2024-02-21T11:56:56;3.97;;;2.00;;
11655;SDS011;5884;43.618;1.438;2024-02-21T11:59:23;4.60;;;1.80;;
11655;SDS011;5884;43.618;1.438;2024-02-21T12:01:50;2.97;;;1.80;;
11655;SDS011;5884;43.618;1.438;2024-02-21T12:04:18;3.93;;;1.80;;
11655;SDS011;5884;43.618;1.438;2024-02-21T12:06:48;3.53;;;1.50;;
11655;SDS011;5884;43.618;1.438;2024-02-21T12:09:17;7.30;;;1.77;;
11655;SDS011;5884;43.618;1.438;2024-02-21T12:11:45;8.43;;;2.07;;
11655;SDS011;5884;43.618;1.438;2024-02-21T12:14:16;6.30;;;2.00;;
11655;SDS011;5884;43.618;1.438;2024-02-21T12:16:44;5.60;;;1.93;;
11655;SDS011;5884;43.618;1.438;2024-02-21T12:19:12;3.77;;;1.90;;
11655;SDS011;5884;43.618;1.438;2024-02-21T12:21:42;2.57;;;1.43;;
11655;SDS011;5884;43.618;1.438;2024-02-21T12:24:12;2.97;;;1.77;;
11655;SDS011;5884;43.618;1.438;2024-02-21T12:26:42;3.97;;;1.60;;
11655;SDS011;5884;43.618;1.438;2024-02-21T12:29:09;3.53;;;1.70;;
11655;SDS011;5884;43.618;1.438;2024-02-21T12:31:37;2.47;;;1.40;;
11655;SDS011;5884;43.618;1.438;2024-02-21T12:34:04;2.50;;;1.63;;
11655;SDS011;5884;43.618;1.438;2024-02-21T12:36:35;4.03;;;1.77;;
11655;SDS011;5884;43.618;1.438;2024-02-21T12:39:07;3.77;;;1.90;;
11655;SDS011;5884;43.618;1.438;2024-02-21T12:41:35;4.20;;;1.80;;
11655;SDS011;5884;43.618;1.438;2024-02-21T12:44:04;31.03;;;4.70;;
11655;SDS011;5884;43.618;1.438;2024-02-21T12:46:32;3.87;;;1.90;;
11655;SDS011;5884;43.618;1.438;2024-02-21T12:49:02;5.63;;;1.70;;
11655;SDS011;5884;43.618;1.438;2024-02-21T12:51:31;4.20;;;1.50;;
11655;SDS011;5884;43.618;1.438;2024-02-21T12:53:58;5.77;;;2.07;;
11655;SDS011;5884;43.618;1.438;2024-02-21T12:56:26;4.23;;;1.73;;
11655;SDS011;5884;43.618;1.438;2024-02-21T12:58:53;4.53;;;2.00;;
11655;SDS011;5884;43.618;1.438;2024-02-21T13:01:21;4.03;;;1.90;;
11655;SDS011;5884;43.618;1.438;2024-02-21T13:03:49;5.27;;;2.03;;
11655;SDS011;5884;43.618;1.438;2024-02-21T13:06:16;3.67;;;1.60;;
11655;SDS011;5884;43.618;1.438;2024-02-21T13:08:44;2.83;;;1.77;;
11655;SDS011;5884;43.618;1.438;2024-02-21T13:11:11;3.97;;;1.63;;
11655;SDS011;5884;43.618;1.438;2024-02-21T13:13:39;3.43;;;1.57;;
11655;SDS011;5884;43.618;1.438;2024-02-21T13:16:06;3.90;;;1.60;;
11655;SDS011;5884;43.618;1.438;2024-02-21T13:18:35;3.40;;;2.00;;
11655;SDS011;5884;43.618;1.438;2024-02-21T13:21:03;4.23;;;1.40;;
11655;SDS011;5884;43.618;1.438;2024-02-21T13:23:31;8.33;;;2.00;;
11655;SDS011;5884;43.618;1.438;2024-02-21T13:25:58;3.43;;;1.63;;
11655;SDS011;5884;43.618;1.438;2024-02-21T13:28:25;3.23;;;1.70;;
11655;SDS011;5884;43.618;1.438;2024-02-21T13:30:52;4.40;;;2.10;;
11655;SDS011;5884;43.618;1.438;2024-02-21T13:33:19;4.00;;;1.70;;
11655;SDS011;5884;43.618;1.438;2024-02-21T13:35:48;3.87;;;1.37;;
11655;SDS011;5884;43.618;1.438;2024-02-21T13:38:15;3.80;;;1.93;;
11655;SDS011;5884;43.618;1.438;2024-02-21T13:40:43;5.43;;;1.80;;
11655;SDS011;5884;43.618;1.438;2024-02-21T13:43:11;3.33;;;1.70;;
11655;SDS011;5884;43.618;1.438;2024-02-21T13:45:38;4.27;;;1.80;;
11655;SDS011;5884;43.618;1.438;2024-02-21T13:48:07;6.80;;;2.10;;
11655;SDS011;5884;43.618;1.438;2024-02-21T13:50:37;13.70;;;2.70;;
11655;SDS011;5884;43.618;1.438;2024-02-21T13:53:09;50.97;;;6.07;;
11655;SDS011;5884;43.618;1.438;2024-02-21T13:55:36;54.57;;;5.57;;
11655;SDS011;5884;43.618;1.438;2024-02-21T13:58:05;7.43;;;2.00;;
11655;SDS011;5884;43.618;1.438;2024-02-21T14:00:34;3.47;;;1.53;;
11655;SDS011;5884;43.618;1.438;2024-02-21T14:03:01;13.20;;;3.63;;
11655;SDS011;5884;43.618;1.438;2024-02-21T14:05:28;4.00;;;1.97;;
11655;SDS011;5884;43.618;1.438;2024-02-21T14:07:55;3.70;;;1.90;;
11655;SDS011;5884;43.618;1.438;2024-02-21T14:10:24;3.23;;;1.67;;
11655;SDS011;5884;43.618;1.438;2024-02-21T14:12:51;3.13;;;1.47;;
11655;SDS011;5884;43.618;1.438;2024-02-21T14:15:18;4.23;;;1.57;;
11655;SDS011;5884;43.618;1.438;2024-02-21T14:17:45;19.40;;;3.00;;
11655;SDS011;5884;43.618;1.438;2024-02-21T14:20:12;6.30;;;1.67;;
11655;SDS011;5884;43.618;1.438;2024-02-21T14:22:40;4.67;;;1.50;;
11655;SDS011;5884;43.618;1.438;2024-02-21T14:25:07;7.63;;;2.57;;
11655;SDS011;5884;43.618;1.438;2024-02-21T14:27:36;6.87;;;1.80;;
11655;SDS011;5884;43.618;1.438;2024-02-21T14:30:04;3.37;;;1.50;;
11655;SDS011;5884;43.618;1.438;2024-02-21T14:32:35;3.07;;;1.47;;
11655;SDS011;5884;43.618;1.438;2024-02-21T14:35:03;4.40;;;1.80;;
11655;SDS011;5884;43.618;1.438;2024-02-21T14:37:31;5.83;;;1.60;;
11655;SDS011;5884;43.618;1.438;2024-02-21T14:39:58;4.70;;;1.80;;
11655;SDS011;5884;43.618;1.438;2024-02-21T14:42:26;4.43;;;1.57;;
11655;SDS011;5884;43.618;1.438;2024-02-21T14:44:55;3.73;;;1.70;;
11655;SDS011;5884;43.618;1.438;2024-02-21T14:47:28;3.27;;;1.60;;
11655;SDS011;5884;43.618;1.438;2024-02-21T14:49:56;4.03;;;1.43;;
11655;SDS011;5884;43.618;1.438;2024-02-21T14:52:23;3.67;;;1.60;;
11655;SDS011;5884;43.618;1.438;2024-02-21T14:54:52;3.47;;;1.90;;
11655;SDS011;5884;43.618;1.438;2024-02-21T14:57:19;3.27;;;1.67;;
11655;SDS011;5884;43.618;1.438;2024-02-21T14:59:47;4.47;;;1.77;;
11655;SDS011;5884;43.618;1.438;2024-02-21T15:02:16;7.57;;;3.93;;
11655;SDS011;5884;43.618;1.438;2024-02-21T15:04:43;6.13;;;3.50;;
11655;SDS011;5884;43.618;1.438;2024-02-21T15:07:10;4.60;;;1.80;;
11655;SDS011;5884;43.618;1.438;2024-02-21T15:09:38;3.77;;;1.80;;
11655;SDS011;5884;43.618;1.438;2024-02-21T15:12:05;7.13;;;1.93;;
11655;SDS011;5884;43.618;1.438;2024-02-21T15:14:33;4.53;;;1.87;;
11655;SDS011;5884;43.618;1.438;2024-02-21T15:17:00;7.93;;;2.10;;
11655;SDS011;5884;43.618;1.438;2024-02-21T15:19:29;5.50;;;2.07;;
11655;SDS011;5884;43.618;1.438;2024-02-21T15:21:57;4.43;;;1.93;;
11655;SDS011;5884;43.618;1.438;2024-02-21T15:24:25;6.40;;;1.80;;
11655;SDS011;5884;43.618;1.438;2024-02-21T15:26:52;5.20;;;1.90;;
11655;SDS011;5884;43.618;1.438;2024-02-21T15:29:19;5.17;;;1.80;;
11655;SDS011;5884;43.618;1.438;2024-02-21T15:31:48;5.00;;;2.03;;
11655;SDS011;5884;43.618;1.438;2024-02-21T15:34:15;3.53;;;1.90;;
11655;SDS011;5884;43.618;1.438;2024-02-21T15:36:44;7.13;;;1.97;;
11655;SDS011;5884;43.618;1.438;2024-02-21T15:39:11;3.10;;;1.80;;
11655;SDS011;5884;43.618;1.438;2024-02-21T15:41:38;4.90;;;2.30;;
11655;SDS011;5884;43.618;1.438;2024-02-21T15:44:06;3.03;;;1.90;;
11655;SDS011;5884;43.618;1.438;2024-02-21T15:46:33;5.43;;;2.20;;
11655;SDS011;5884;43.618;1.438;2024-02-21T15:49:02;5.10;;;2.10;;
11655;SDS011;5884;43.618;1.438;2024-02-21T15:51:29;7.70;;;2.20;;
11655;SDS011;5884;43.618;1.438;2024-02-21T15:53:58;8.07;;;3.90;;
11655;SDS011;5884;43.618;1.438;2024-02-21T15:56:25;7.90;;;3.93;;
11655;SDS011;5884;43.618;1.438;2024-02-21T15:58:52;8.43;;;3.67;;
11655;SDS011;5884;43.618;1.438;2024-02-21T16:01:20;6.40;;;2.80;;
11655;SDS011;5884;43.618;1.438;2024-02-21T16:03:48;4.57;;;2.87;;
11655;SDS011;5884;43.618;1.438;2024-02-21T16:06:16;5.20;;;2.70;;
11655;SDS011;5884;43.618;1.438;2024-02-21T16:08:43;6.23;;;2.97;;
11655;SDS011;5884;43.618;1.438;2024-02-21T16:11:14;6.43;;;2.60;;
11655;SDS011;5884;43.618;1.438;2024-02-21T16:13:42;3.67;;;2.30;;
11655;SDS011;5884;43.618;1.438;2024-02-21T16:16:10;4.67;;;2.40;;
11655;SDS011;5884;43.618;1.438;2024-02-21T16:18:38;3.33;;;2.10;;
11655;SDS011;5884;43.618;1.438;2024-02-21T16:21:05;5.67;;;2.33;;
11655;SDS011;5884;43.618;1.438;2024-02-21T16:23:33;4.30;;;2.40;;
11655;SDS011;5884;43.618;1.438;2024-02-21T16:26:00;4.73;;;2.47;;
11655;SDS011;5884;43.618;1.438;2024-02-21T16:28:29;4.27;;;2.40;;
11655;SDS011;5884;43.618;1.438;2024-02-21T16:30:56;6.70;;;2.70;;
11655;SDS011;5884;43.618;1.438;2024-02-21T16:33:24;4.47;;;2.30;;
11655;SDS011;5884;43.618;1.438;2024-02-21T16:35:51;4.53;;;2.40;;
11655;SDS011;5884;43.618;1.438;2024-02-21T16:38:19;5.70;;;3.50;;
11655;SDS011;5884;43.618;1.438;2024-02-21T16:40:46;5.70;;;3.10;;
11655;SDS011;5884;43.618;1.438;2024-02-21T16:43:14;4.77;;;2.50;;
11655;SDS011;5884;43.618;1.438;2024-02-21T16:45:42;8.10;;;2.70;;
11655;SDS011;5884;43.618;1.438;2024-02-21T16:48:09;6.43;;;2.83;;
11655;SDS011;5884;43.618;1.438;2024-02-21T16:50:36;10.90;;;2.60;;
11655;SDS011;5884;43.618;1.438;2024-02-21T16:53:04;13.97;;;2.93;;
11655;SDS011;5884;43.618;1.438;2024-02-21T16:55:32;5.50;;;2.80;;
11655;SDS011;5884;43.618;1.438;2024-02-21T16:57:59;7.47;;;3.20;;
11655;SDS011;5884;43.618;1.438;2024-02-21T17:00:29;5.57;;;2.80;;
11655;SDS011;5884;43.618;1.438;2024-02-21T17:02:58;5.13;;;2.63;;
11655;SDS011;5884;43.618;1.438;2024-02-21T17:05:25;14.90;;;4.20;;
11655;SDS011;5884;43.618;1.438;2024-02-21T17:07:52;4.67;;;3.20;;
11655;SDS011;5884;43.618;1.438;2024-02-21T17:10:19;12.90;;;6.37;;
11655;SDS011;5884;43.618;1.438;2024-02-21T17:12:46;11.37;;;5.73;;
11655;SDS011;5884;43.618;1.438;2024-02-21T17:15:14;7.07;;;4.60;;
11655;SDS011;5884;43.618;1.438;2024-02-21T17:17:41;6.43;;;3.83;;
11655;SDS011;5884;43.618;1.438;2024-02-21T17:20:10;6.67;;;3.20;;
11655;SDS011;5884;43.618;1.438;2024-02-21T17:22:38;6.03;;;3.47;;
11655;SDS011;5884;43.618;1.438;2024-02-21T17:25:06;5.00;;;2.90;;
11655;SDS011;5884;43.618;1.438;2024-02-21T17:27:35;5.17;;;3.30;;
11655;SDS011;5884;43.618;1.438;2024-02-21T17:30:03;4.40;;;3.30;;
11655;SDS011;5884;43.618;1.438;2024-02-21T17:32:33;6.03;;;3.30;;
11655;SDS011;5884;43.618;1.438;2024-02-21T17:35:01;4.70;;;3.03;;
11655;SDS011;5884;43.618;1.438;2024-02-21T17:37:31;7.37;;;3.73;;
11655;SDS011;5884;43.618;1.438;2024-02-21T17:39:59;10.10;;;4.10;;
11655;SDS011;5884;43.618;1.438;2024-02-21T17:42:29;8.33;;;4.30;;
11655;SDS011;5884;43.618;1.438;2024-02-21T17:44:57;8.30;;;4.07;;
11655;SDS011;5884;43.618;1.438;2024-02-21T17:47:24;7.97;;;3.80;;
11655;SDS011;5884;43.618;1.438;2024-02-21T17:49:51;9.07;;;4.37;;
11655;SDS011;5884;43.618;1.438;2024-02-21T17:52:18;7.67;;;4.03;;
11655;SDS011;5884;43.618;1.438;2024-02-21T17:54:47;12.83;;;5.17;;
11655;SDS011;5884;43.618;1.438;2024-02-21T17:57:14;9.17;;;4.70;;
11655;SDS011;5884;43.618;1.438;2024-02-21T17:59:41;11.80;;;4.63;;
11655;SDS011;5884;43.618;1.438;2024-02-21T18:02:10;10.27;;;5.90;;
11655;SDS011;5884;43.618;1.438;2024-02-21T18:04:41;12.80;;;5.93;;
11655;SDS011;5884;43.618;1.438;2024-02-21T18:07:08;9.93;;;5.80;;
11655;SDS011;5884;43.618;1.438;2024-02-21T18:09:35;8.33;;;5.47;;
11655;SDS011;5884;43.618;1.438;2024-02-21T18:12:05;11.33;;;5.70;;
11655;SDS011;5884;43.618;1.438;2024-02-21T18:14:33;14.80;;;8.40;;
11655;SDS011;5884;43.618;1.438;2024-02-21T18:17:01;16.83;;;10.10;;
11655;SDS011;5884;43.618;1.438;2024-02-21T18:19:32;12.23;;;7.03;;
11655;SDS011;5884;43.618;1.438;2024-02-21T18:22:00;12.60;;;6.03;;
11655;SDS011;5884;43.618;1.438;2024-02-21T18:24:27;13.07;;;6.23;;
11655;SDS011;5884;43.618;1.438;2024-02-21T18:26:55;10.10;;;6.47;;
11655;SDS011;5884;43.618;1.438;2024-02-21T18:29:24;15.70;;;7.03;;
11655;SDS011;5884;43.618;1.438;2024-02-21T18:31:52;10.80;;;6.93;;
11655;SDS011;5884;43.618;1.438;2024-02-21T18:34:19;13.77;;;7.60;;
11655;SDS011;5884;43.618;1.438;2024-02-21T18:36:47;14.50;;;7.73;;
11655;SDS011;5884;43.618;1.438;2024-02-21T18:39:14;13.77;;;7.70;;
11655;SDS011;5884;43.618;1.438;2024-02-21T18:41:41;12.13;;;6.70;;
11655;SDS011;5884;43.618;1.438;2024-02-21T18:44:10;11.80;;;6.67;;
11655;SDS011;5884;43.618;1.438;2024-02-21T18:46:39;13.20;;;7.37;;
11655;SDS011;5884;43.618;1.438;2024-02-21T18:49:07;13.57;;;7.17;;
11655;SDS011;5884;43.618;1.438;2024-02-21T18:51:34;12.23;;;7.60;;
11655;SDS011;5884;43.618;1.438;2024-02-21T18:54:02;15.43;;;8.13;;
11655;SDS011;5884;43.618;1.438;2024-02-21T18:56:30;16.00;;;8.50;;
11655;SDS011;5884;43.618;1.438;2024-02-21T18:58:57;15.33;;;8.30;;
11655;SDS011;5884;43.618;1.438;2024-02-21T19:01:25;13.67;;;8.10;;
11655;SDS011;5884;43.618;1.438;2024-02-21T19:03:53;12.70;;;7.77;;
11655;SDS011;5884;43.618;1.438;2024-02-21T19:06:22;14.83;;;7.87;;
11655;SDS011;5884;43.618;1.438;2024-02-21T19:08:49;14.07;;;7.40;;
11655;SDS011;5884;43.618;1.438;2024-02-21T19:11:16;15.93;;;7.30;;
11655;SDS011;5884;43.618;1.438;2024-02-21T19:13:43;16.03;;;7.63;;
11655;SDS011;5884;43.618;1.438;2024-02-21T19:16:11;12.40;;;7.57;;
11655;SDS011;5884;43.618;1.438;2024-02-21T19:18:39;13.97;;;8.03;;
11655;SDS011;5884;43.618;1.438;2024-02-21T19:21:08;11.33;;;6.73;;
11655;SDS011;5884;43.618;1.438;2024-02-21T19:23:36;12.47;;;7.37;;
11655;SDS011;5884;43.618;1.438;2024-02-21T19:26:03;12.73;;;8.03;;
11655;SDS011;5884;43.618;1.438;2024-02-21T19:28:34;13.57;;;7.30;;
11655;SDS011;5884;43.618;1.438;2024-02-21T19:31:01;12.30;;;6.73;;
11655;SDS011;5884;43.618;1.438;2024-02-21T19:33:29;13.57;;;7.00;;
11655;SDS011;5884;43.618;1.438;2024-02-21T19:35:56;12.30;;;6.83;;
11655;SDS011;5884;43.618;1.438;2024-02-21T19:38:26;10.87;;;5.47;;
11655;SDS011;5884;43.618;1.438;2024-02-21T19:40:53;9.87;;;6.13;;
11655;SDS011;5884;43.618;1.438;2024-02-21T19:43:20;9.07;;;6.30;;
11655;SDS011;5884;43.618;1.438;2024-02-21T19:45:48;11.73;;;6.73;;
11655;SDS011;5884;43.618;1.438;2024-02-21T19:48:15;12.27;;;6.87;;
11655;SDS011;5884;43.618;1.438;2024-02-21T19:50:43;16.40;;;7.00;;
11655;SDS011;5884;43.618;1.438;2024-02-21T19:53:10;14.50;;;7.27;;
11655;SDS011;5884;43.618;1.438;2024-02-21T19:55:40;12.03;;;7.23;;
11655;SDS011;5884;43.618;1.438;2024-02-21T19:58:07;12.63;;;6.93;;
11655;SDS011;5884;43.618;1.438;2024-02-21T20:00:34;12.60;;;7.07;;
11655;SDS011;5884;43.618;1.438;2024-02-21T20:03:03;11.83;;;7.67;;
11655;SDS011;5884;43.618;1.438;2024-02-21T20:05:30;18.83;;;7.03;;
11655;SDS011;5884;43.618;1.438;2024-02-21T20:07:58;14.77;;;8.07;;
11655;SDS011;5884;43.618;1.438;2024-02-21T20:10:26;13.50;;;8.40;;
11655;SDS011;5884;43.618;1.438;2024-02-21T20:12:55;16.27;;;7.40;;
11655;SDS011;5884;43.618;1.438;2024-02-21T20:15:22;14.97;;;8.03;;
11655;SDS011;5884;43.618;1.438;2024-02-21T20:17:51;12.03;;;6.67;;
11655;SDS011;5884;43.618;1.438;2024-02-21T20:20:19;14.30;;;9.03;;
11655;SDS011;5884;43.618;1.438;2024-02-21T20:22:47;15.80;;;7.33;;
11655;SDS011;5884;43.618;1.438;2024-02-21T20:25:14;12.70;;;7.10;;
11655;SDS011;5884;43.618;1.438;2024-02-21T20:27:41;10.27;;;6.30;;
11655;SDS011;5884;43.618;1.438;2024-02-21T20:30:10;10.53;;;6.43;;
11655;SDS011;5884;43.618;1.438;2024-02-21T20:32:38;9.10;;;5.17;;
11655;SDS011;5884;43.618;1.438;2024-02-21T20:35:05;9.00;;;5.90;;
11655;SDS011;5884;43.618;1.438;2024-02-21T20:37:35;10.50;;;6.53;;
11655;SDS011;5884;43.618;1.438;2024-02-21T20:40:03;14.37;;;6.50;;
11655;SDS011;5884;43.618;1.438;2024-02-21T20:42:33;10.73;;;5.50;;
11655;SDS011;5884;43.618;1.438;2024-02-21T20:45:01;12.80;;;6.03;;